Time,TemperatureF,DewpointF,PressureIn,WindDirection,WindDirectionDegrees,WindSpeedMPH,WindSpeedGustMPH,Humidity,HourlyPrecipIn,Conditions,Clouds,dailyrainin,SoftwareType,DateUTC
2013-03-24 00:00:00,70.2,68.4,29.59,SW,225,8.4,16.6,94,0.00,RA,,0.00,WeatherDisplay:10.37,2013-03-24 05:00:00,
2013-03-24 00:05:00,70.2,68.4,29.59,SW,225,8.1,9.6,94,0.00,RA,,0.00,WeatherDisplay:10.37,2013-03-24 05:05:00,
2013-03-24 00:10:00,70.0,68.2,29.58,SSE,158,10.6,20.8,94,0.00,CLR,,0.00,WeatherDisplay:10.37,2013-03-24 05:10:00,
2013-03-24 00:15:00,70.0,68.2,29.58,SW,225,9.2,12.1,94,0.00,CLR,,0.00,WeatherDisplay:10.37,2013-03-24 05:15:00,
2013-03-24 00:20:00,70.0,68.2,29.58,SW,225,9.2,16.0,94,0.00,CLR,,0.00,WeatherDisplay:10.37,2013-03-24 05:20:00,
2013-03-24 00:25:00,70.2,68.4,29.58,SSW,202,3.5,4.2,94,0.00,CLR,,0.00,WeatherDisplay:10.37,2013-03-24 05:25:00,
2013-03-24 00:30:00,70.0,68.2,29.58,South,180,3.5,7.0,94,0.00,CLR,,0.00,WeatherDisplay:10.37,2013-03-24 05:30:00,
2013-03-24 00:35:00,70.2,68.4,29.58,SW,225,0.0,0.0,94,0.00,CLR,,0.00,WeatherDisplay:10.37,2013-03-24 05:35:00,
2013-03-24 00:40:00,70.2,68.4,29.58,WSW,248,5.8,10.5,94,0.00,CLR,,0.00,WeatherDisplay:10.37,2013-03-24 05:40:00,
2013-03-24 00:45:00,70.0,68.2,29.58,SW,225,12.7,24.5,94,0.00,CLR,,0.00,WeatherDisplay:10.37,2013-03-24 05:45:00,
2013-03-24 00:50:00,70.0,68.2,29.59,SW,225,4.0,4.0,94,0.00,CLR,,0.00,WeatherDisplay:10.37,2013-03-24 05:50:00,
2013-03-24 00:55:00,70.0,68.2,29.59,SW,225,6.9,13.3,94,0.00,CLR,,0.00,WeatherDisplay:10.37,2013-03-24 05:55:00,
2013-03-24 01:00:00,70.0,68.2,29.59,SW,225,9.2,19.3,94,0.00,CLR,,0.00,WeatherDisplay:10.37,2013-03-24 06:00:00,
2013-03-24 01:05:00,70.0,68.2,29.58,WSW,248,3.5,7.9,94,0.00,CLR,,0.00,WeatherDisplay:10.37,2013-03-24 06:05:00,
2013-03-24 01:10:00,70.0,68.2,29.59,WSW,248,10.4,13.1,94,0.00,CLR,,0.00,WeatherDisplay:10.37,2013-03-24 06:10:00,
2013-03-24 01:15:00,70.0,68.2,29.59,WSW,248,5.8,7.9,94,0.00,CLR,,0.00,WeatherDisplay:10.37,2013-03-24 06:15:00,
2013-03-24 01:20:00,70.0,68.2,29.58,SW,225,2.3,2.3,94,0.00,CLR,,0.00,WeatherDisplay:10.37,2013-03-24 06:20:00,
2013-03-24 01:25:00,70.0,68.2,29.57,SW,225,8.1,15.9,94,0.00,CLR,,0.00,WeatherDisplay:10.37,2013-03-24 06:25:00,
2013-03-24 01:30:00,70.0,68.2,29.58,SW,225,5.8,10.5,94,0.00,CLR,,0.00,WeatherDisplay:10.37,2013-03-24 06:30:00,
2013-03-24 01:35:00,70.0,68.2,29.58,SW,225,9.2,15.7,94,0.00,CLR,,0.00,WeatherDisplay:10.37,2013-03-24 06:35:00,
2013-03-24 01:40:00,70.0,68.2,29.58,SW,225,5.8,11.1,94,0.00,CLR,,0.00,WeatherDisplay:10.37,2013-03-24 06:40:00,
2013-03-24 01:45:00,70.0,68.2,29.57,WSW,248,12.7,24.5,94,0.00,CLR,,0.00,WeatherDisplay:10.37,2013-03-24 06:45:00,
2013-03-24 01:50:00,70.0,68.2,29.57,WNW,292,3.5,7.3,94,0.00,CLR,,0.00,WeatherDisplay:10.37,2013-03-24 06:50:00,
2013-03-24 01:55:00,70.0,68.2,29.58,WSW,248,6.9,13.1,94,0.00,CLR,,0.00,WeatherDisplay:10.37,2013-03-24 06:55:00,
2013-03-24 02:00:00,70.0,68.2,29.57,SW,225,5.8,10.5,94,0.00,CLR,,0.00,WeatherDisplay:10.37,2013-03-24 07:00:00,
2013-03-24 02:05:00,70.0,68.2,29.57,SW,225,5.8,5.9,94,0.00,CLR,,0.00,WeatherDisplay:10.37,2013-03-24 07:05:00,
2013-03-24 02:10:00,70.0,68.2,29.57,SW,225,1.2,1.8,94,0.00,CLR,,0.00,WeatherDisplay:10.37,2013-03-24 07:10:00,
2013-03-24 02:15:00,70.0,68.2,29.57,SSW,202,11.5,22.8,94,0.00,CLR,,0.00,WeatherDisplay:10.37,2013-03-24 07:15:00,
2013-03-24 02:20:00,70.0,68.2,29.57,West,270,8.1,8.1,94,0.00,CLR,,0.00,WeatherDisplay:10.37,2013-03-24 07:20:00,
2013-03-24 02:25:00,70.0,68.2,29.57,SW,225,1.3,2.6,94,0.00,CLR,,0.00,WeatherDisplay:10.37,2013-03-24 07:25:00,
2013-03-24 02:30:00,69.8,68.0,29.57,SW,225,3.5,6.3,94,0.00,CLR,,0.00,WeatherDisplay:10.37,2013-03-24 07:30:00,
2013-03-24 02:35:00,69.8,68.0,29.56,WSW,248,2.3,3.4,94,0.00,CLR,,0.00,WeatherDisplay:10.37,2013-03-24 07:35:00,
2013-03-24 02:40:00,69.6,67.8,29.56,West,270,5.8,12.3,94,0.00,CLR,,0.00,WeatherDisplay:10.37,2013-03-24 07:40:00,
2013-03-24 02:45:00,69.6,67.8,29.56,WSW,248,1.2,2.6,94,0.00,CLR,,0.00,WeatherDisplay:10.37,2013-03-24 07:45:00,
2013-03-24 02:50:00,69.6,67.8,29.56,WSW,248,5.8,6.2,94,0.00,CLR,,0.00,WeatherDisplay:10.37,2013-03-24 07:50:00,
2013-03-24 02:55:00,69.6,67.8,29.56,SW,225,9.2,13.1,94,0.00,CLR,,0.00,WeatherDisplay:10.37,2013-03-24 07:55:00,
2013-03-24 03:00:00,69.6,67.8,29.56,West,270,1.2,11.0,94,0.00,CLR,,0.00,WeatherDisplay:10.37,2013-03-24 08:00:00,
2013-03-24 03:05:00,69.6,67.8,29.56,West,270,1.2,11.0,94,0.00,CLR,,0.00,WeatherDisplay:10.37,2013-03-24 08:05:00,
2013-03-24 03:10:00,69.6,67.8,29.56,WSW,248,9.2,15.3,94,0.00,CLR,,0.00,WeatherDisplay:10.37,2013-03-24 08:10:00,
2013-03-24 03:15:00,69.6,67.8,29.56,WSW,248,2.3,3.5,94,0.00,CLR,,0.00,WeatherDisplay:10.37,2013-03-24 08:15:00,
2013-03-24 03:20:00,69.4,67.6,29.56,West,270,2.3,4.2,94,0.00,CLR,,0.00,WeatherDisplay:10.37,2013-03-24 08:20:00,
2013-03-24 03:25:00,69.4,67.6,29.57,WSW,248,13.8,26.3,94,0.00,CLR,,0.00,WeatherDisplay:10.37,2013-03-24 08:25:00,
2013-03-24 03:30:00,69.3,67.5,29.56,WSW,248,6.9,13.5,94,0.00,CLR,,0.00,WeatherDisplay:10.37,2013-03-24 08:30:00,
2013-03-24 03:35:00,69.1,67.3,29.57,WSW,248,4.0,4.0,94,0.00,CLR,,0.00,WeatherDisplay:10.37,2013-03-24 08:35:00,
2013-03-24 03:40:00,69.1,67.3,29.56,WSW,248,3.5,5.4,94,0.00,CLR,,0.00,WeatherDisplay:10.37,2013-03-24 08:40:00,
2013-03-24 03:45:00,68.7,66.9,29.56,WSW,248,3.5,7.0,94,0.00,CLR,,0.00,WeatherDisplay:10.37,2013-03-24 08:45:00,
2013-03-24 03:50:00,68.7,66.9,29.56,West,270,0.0,0.0,94,0.00,CLR,,0.00,WeatherDisplay:10.37,2013-03-24 08:50:00,
2013-03-24 03:55:00,68.7,66.9,29.56,WSW,248,0.0,0.0,94,0.00,CLR,,0.00,WeatherDisplay:10.37,2013-03-24 08:55:00,
2013-03-24 04:00:00,68.5,66.7,29.56,WSW,248,0.0,0.0,94,0.00,CLR,,0.00,WeatherDisplay:10.37,2013-03-24 09:00:00,
2013-03-24 04:05:00,68.5,66.7,29.56,WSW,248,0.0,0.0,94,0.00,CLR,,0.00,WeatherDisplay:10.37,2013-03-24 09:05:00,
2013-03-24 04:10:00,68.5,66.7,29.56,WSW,248,0.0,0.0,94,0.00,CLR,,0.00,WeatherDisplay:10.37,2013-03-24 09:10:00,
2013-03-24 04:15:00,68.2,66.4,29.56,WSW,248,0.0,0.0,94,0.00,CLR,,0.00,WeatherDisplay:10.37,2013-03-24 09:15:00,
2013-03-24 04:20:00,68.2,66.4,29.56,West,270,0.0,0.0,94,0.00,CLR,,0.00,WeatherDisplay:10.37,2013-03-24 09:20:00,
2013-03-24 04:25:00,68.2,66.4,29.56,WSW,248,12.8,25.4,94,0.00,CLR,,0.00,WeatherDisplay:10.37,2013-03-24 09:25:00,
2013-03-24 04:30:00,68.0,66.2,29.56,WSW,248,0.0,0.9,94,0.00,CLR,,0.00,WeatherDisplay:10.37,2013-03-24 09:30:00,
2013-03-24 04:35:00,67.8,66.0,29.55,WSW,248,2.3,2.3,94,0.00,CLR,,0.00,WeatherDisplay:10.37,2013-03-24 09:35:00,
2013-03-24 04:40:00,67.8,66.0,29.55,WSW,248,0.0,0.0,94,0.00,CLR,,0.00,WeatherDisplay:10.37,2013-03-24 09:40:00,
2013-03-24 04:45:00,67.8,66.0,29.56,WSW,248,0.0,0.0,94,0.00,CLR,,0.00,WeatherDisplay:10.37,2013-03-24 09:45:00,
2013-03-24 04:50:00,67.8,66.0,29.56,WSW,248,0.0,0.0,94,0.00,CLR,,0.00,WeatherDisplay:10.37,2013-03-24 09:50:00,
2013-03-24 04:55:00,67.8,66.0,29.56,WSW,248,0.0,0.0,94,0.00,CLR,,0.00,WeatherDisplay:10.37,2013-03-24 09:55:00,
2013-03-24 05:00:00,67.8,66.0,29.56,WSW,248,0.0,0.0,94,0.00,CLR,,0.00,WeatherDisplay:10.37,2013-03-24 10:00:00,
2013-03-24 05:05:00,67.8,66.0,29.56,WSW,248,0.0,0.0,94,0.00,CLR,,0.00,WeatherDisplay:10.37,2013-03-24 10:05:00,
2013-03-24 05:10:00,67.8,66.0,29.56,WSW,248,0.0,0.0,94,0.00,CLR,,0.00,WeatherDisplay:10.37,2013-03-24 10:10:00,
2013-03-24 05:15:00,67.8,66.0,29.56,WSW,248,0.0,0.0,94,0.00,CLR,,0.00,WeatherDisplay:10.37,2013-03-24 10:15:00,
2013-03-24 05:20:00,67.8,66.0,29.55,WSW,248,0.0,0.0,94,0.00,CLR,,0.00,WeatherDisplay:10.37,2013-03-24 10:20:00,
2013-03-24 05:25:00,67.8,66.0,29.55,WSW,248,0.0,0.0,94,0.00,CLR,,0.00,WeatherDisplay:10.37,2013-03-24 10:25:00,
2013-03-24 05:30:00,67.8,66.0,29.55,West,270,0.0,0.0,94,0.00,CLR,,0.00,WeatherDisplay:10.37,2013-03-24 10:30:00,
2013-03-24 05:35:00,67.8,66.0,29.56,West,270,0.0,0.0,94,0.00,CLR,,0.00,WeatherDisplay:10.37,2013-03-24 10:35:00,
2013-03-24 05:40:00,67.8,66.0,29.56,WSW,248,0.0,0.0,94,0.00,CLR,,0.00,WeatherDisplay:10.37,2013-03-24 10:40:00,
2013-03-24 05:45:00,67.6,65.9,29.56,West,270,0.0,0.0,94,0.00,CLR,,0.00,WeatherDisplay:10.37,2013-03-24 10:45:00,
2013-03-24 05:50:00,67.8,66.0,29.56,West,270,0.0,0.0,94,0.00,CLR,,0.00,WeatherDisplay:10.37,2013-03-24 10:50:00,
2013-03-24 05:55:00,67.6,65.9,29.57,SW,225,0.0,0.0,94,0.00,CLR,,0.00,WeatherDisplay:10.37,2013-03-24 10:55:00,
2013-03-24 06:00:00,67.6,65.9,29.57,SW,225,0.0,0.0,94,0.00,CLR,,0.00,WeatherDisplay:10.37,2013-03-24 11:00:00,
2013-03-24 06:05:00,67.6,65.9,29.57,SW,225,0.0,0.0,94,0.00,CLR,,0.00,WeatherDisplay:10.37,2013-03-24 11:05:00,
2013-03-24 06:10:00,67.6,65.9,29.57,SW,225,0.0,0.0,94,0.00,CLR,,0.00,WeatherDisplay:10.37,2013-03-24 11:10:00,
2013-03-24 06:15:00,67.6,65.9,29.59,WNW,292,0.0,0.0,94,0.00,CLR,,0.00,WeatherDisplay:10.37,2013-03-24 11:15:00,
2013-03-24 06:20:00,67.5,65.7,29.59,WSW,248,0.0,0.0,94,0.00,CLR,,0.00,WeatherDisplay:10.37,2013-03-24 11:20:00,
2013-03-24 06:25:00,67.3,65.5,29.59,NNW,338,0.0,0.0,94,0.00,CLR,,0.00,WeatherDisplay:10.37,2013-03-24 11:25:00,
2013-03-24 06:30:00,67.1,65.3,29.59,North,0,0.0,0.0,94,0.00,CLR,,0.00,WeatherDisplay:10.37,2013-03-24 11:30:00,
2013-03-24 06:35:00,66.7,65.0,29.59,WSW,248,0.0,0.0,94,0.00,CLR,,0.00,WeatherDisplay:10.37,2013-03-24 11:35:00,
2013-03-24 06:40:00,66.6,64.5,29.60,WSW,248,0.0,0.0,93,0.00,CLR,,0.00,WeatherDisplay:10.37,2013-03-24 11:40:00,
2013-03-24 06:45:00,66.4,64.3,29.60,WSW,248,0.0,0.0,93,0.00,CLR,,0.00,WeatherDisplay:10.37,2013-03-24 11:45:00,
2013-03-24 06:50:00,66.0,63.6,29.59,WSW,248,0.0,0.0,92,0.00,CLR,,0.00,WeatherDisplay:10.37,2013-03-24 11:50:00,
2013-03-24 06:56:00,65.8,63.5,29.59,WSW,248,0.0,0.0,92,0.00,CLR,,0.00,WeatherDisplay:10.37,2013-03-24 11:56:00,
2013-03-24 07:01:00,65.5,63.1,29.59,WSW,248,0.0,0.0,92,0.00,CLR,,0.00,WeatherDisplay:10.37,2013-03-24 12:01:00,
2013-03-24 07:06:00,65.1,62.7,29.61,WSW,248,0.0,0.0,92,0.00,CLR,,0.00,WeatherDisplay:10.37,2013-03-24 12:06:00,
2013-03-24 07:11:00,65.1,62.4,29.61,West,270,0.0,0.0,91,0.00,CLR,,0.00,WeatherDisplay:10.37,2013-03-24 12:11:00,
2013-03-24 07:16:00,64.9,62.2,29.60,West,270,0.0,0.0,91,0.00,CLR,,0.00,WeatherDisplay:10.37,2013-03-24 12:16:00,
2013-03-24 07:21:00,64.9,62.2,29.60,West,270,0.0,0.0,91,0.00,CLR,,0.00,WeatherDisplay:10.37,2013-03-24 12:21:00,
2013-03-24 07:26:00,64.9,62.2,29.60,West,270,0.0,0.0,91,0.00,CLR,,0.00,WeatherDisplay:10.37,2013-03-24 12:26:00,
2013-03-24 07:31:00,65.1,62.4,29.59,West,270,0.0,0.0,91,0.00,CLR,,0.00,WeatherDisplay:10.37,2013-03-24 12:31:00,
2013-03-24 07:36:00,66.0,63.0,29.59,West,270,0.0,0.0,90,0.00,CLR,,0.00,WeatherDisplay:10.37,2013-03-24 12:36:00,
2013-03-24 07:41:00,66.4,63.4,29.60,West,270,0.0,0.0,90,0.00,CLR,,0.00,WeatherDisplay:10.37,2013-03-24 12:41:00,
2013-03-24 07:46:00,66.9,63.9,29.60,West,270,0.0,0.0,90,0.00,CLR,,0.00,WeatherDisplay:10.37,2013-03-24 12:46:00,
2013-03-24 07:51:00,67.3,63.6,29.60,West,270,0.0,0.0,88,0.00,CLR,,0.00,WeatherDisplay:10.37,2013-03-24 12:51:00,
2013-03-24 07:56:00,67.8,64.1,29.60,West,270,0.0,0.0,88,0.00,CLR,,0.00,WeatherDisplay:10.37,2013-03-24 12:56:00,
2013-03-24 08:01:00,68.4,64.3,29.60,West,270,0.0,0.0,87,0.00,CLR,,0.00,WeatherDisplay:10.37,2013-03-24 13:01:00,
2013-03-24 08:06:00,68.7,64.4,29.60,West,270,0.0,0.0,86,0.00,CLR,,0.00,WeatherDisplay:10.37,2013-03-24 13:06:00,
2013-03-24 08:11:00,68.9,64.2,29.59,West,270,0.0,0.0,85,0.00,CLR,,0.00,WeatherDisplay:10.37,2013-03-24 13:11:00,
2013-03-24 08:16:00,69.3,64.6,29.59,West,270,0.0,0.0,85,0.00,CLR,,0.00,WeatherDisplay:10.37,2013-03-24 13:16:00,
2013-03-24 08:21:00,70.0,64.9,29.59,West,270,0.0,0.0,84,0.00,CLR,,0.00,WeatherDisplay:10.37,2013-03-24 13:21:00,
2013-03-24 08:26:00,70.7,65.3,29.60,West,270,0.0,0.0,83,0.00,CLR,,0.00,WeatherDisplay:10.37,2013-03-24 13:26:00,
2013-03-24 08:31:00,71.4,65.3,29.60,West,270,0.0,0.0,81,0.00,CLR,,0.00,WeatherDisplay:10.37,2013-03-24 13:31:00,
2013-03-24 08:36:00,71.8,65.6,29.62,NW,315,0.0,0.0,81,0.00,CLR,,0.00,WeatherDisplay:10.37,2013-03-24 13:36:00,
2013-03-24 08:41:00,72.3,66.2,29.62,NNW,338,4.9,7.0,81,0.00,CLR,,0.00,WeatherDisplay:10.37,2013-03-24 13:41:00,
2013-03-24 08:46:00,72.7,65.8,29.62,WSW,248,5.8,6.7,79,0.00,CLR,,0.00,WeatherDisplay:10.37,2013-03-24 13:46:00,
2013-03-24 08:51:00,72.7,65.8,29.62,WSW,248,5.8,5.8,79,0.00,CLR,,0.00,WeatherDisplay:10.37,2013-03-24 13:51:00,
2013-03-24 08:56:00,72.7,65.4,29.62,WNW,292,0.0,0.0,78,0.00,CLR,,0.00,WeatherDisplay:10.37,2013-03-24 13:56:00,
2013-03-24 09:01:00,72.7,65.1,29.62,West,270,0.0,0.0,77,0.00,CLR,,0.00,WeatherDisplay:10.37,2013-03-24 14:01:00,
2013-03-24 09:06:00,72.5,64.5,29.63,WSW,248,0.0,0.0,76,0.00,CLR,,0.00,WeatherDisplay:10.37,2013-03-24 14:06:00,
2013-03-24 09:11:00,72.5,64.5,29.63,WSW,248,10.4,0.0,76,0.00,CLR,,0.00,WeatherDisplay:10.37,2013-03-24 14:11:00,
2013-03-24 09:16:00,72.3,64.3,29.63,WSW,248,0.0,0.0,76,0.00,CLR,,0.00,WeatherDisplay:10.37,2013-03-24 14:16:00,
2013-03-24 09:21:00,72.1,63.8,29.63,WSW,248,2.3,3.5,75,0.00,CLR,,0.00,WeatherDisplay:10.37,2013-03-24 14:21:00,
2013-03-24 09:27:00,72.1,63.8,29.63,WNW,292,0.0,0.0,75,0.00,CLR,,0.00,WeatherDisplay:10.37,2013-03-24 14:27:00,
2013-03-24 09:32:00,72.3,64.3,29.64,NNW,338,0.0,0.0,76,0.00,CLR,,0.00,WeatherDisplay:10.37,2013-03-24 14:32:00,
2013-03-24 09:37:00,72.7,64.7,29.65,NW,315,0.0,0.0,76,0.00,CLR,,0.00,WeatherDisplay:10.37,2013-03-24 14:37:00,
2013-03-24 09:42:00,72.9,64.8,29.65,NNW,338,0.0,0.0,76,0.00,CLR,,0.00,WeatherDisplay:10.37,2013-03-24 14:42:00,
2013-03-24 09:47:00,73.0,64.6,29.65,West,270,0.0,0.0,75,0.00,CLR,,0.00,WeatherDisplay:10.37,2013-03-24 14:47:00,
2013-03-24 09:52:00,73.0,64.6,29.66,West,270,0.0,0.2,75,0.00,CLR,,0.00,WeatherDisplay:10.37,2013-03-24 14:52:00,
2013-03-24 09:57:00,72.7,63.9,29.67,West,270,0.0,0.0,74,0.00,CLR,,0.00,WeatherDisplay:10.37,2013-03-24 14:57:00,
2013-03-24 10:02:00,72.5,63.7,29.67,WNW,292,0.0,0.0,74,0.00,CLR,,0.00,WeatherDisplay:10.37,2013-03-24 15:02:00,
2013-03-24 10:07:00,72.5,64.1,29.67,NNW,338,0.0,0.0,75,0.00,CLR,,0.00,WeatherDisplay:10.37,2013-03-24 15:07:00,
2013-03-24 10:12:00,72.7,64.3,29.67,NNW,338,0.0,0.0,75,0.00,CLR,,0.00,WeatherDisplay:10.37,2013-03-24 15:12:00,
2013-03-24 10:17:00,72.9,64.5,29.67,West,270,0.0,0.0,75,0.00,CLR,,0.00,WeatherDisplay:10.37,2013-03-24 15:17:00,
2013-03-24 10:23:00,73.0,65.0,29.68,West,270,0.0,0.0,76,0.00,CLR,,0.00,WeatherDisplay:10.37,2013-03-24 15:23:00,
2013-03-24 10:28:00,73.0,64.6,29.68,WNW,292,0.0,0.0,75,0.00,CLR,,0.00,WeatherDisplay:10.37,2013-03-24 15:28:00,
2013-03-24 10:33:00,73.0,64.3,29.68,West,270,0.0,0.0,74,0.00,CLR,,0.00,WeatherDisplay:10.37,2013-03-24 15:33:00,
2013-03-24 10:39:00,73.2,64.8,29.68,North,0,0.0,0.0,75,0.00,CLR,,0.00,WeatherDisplay:10.37,2013-03-24 15:39:00,
2013-03-24 10:44:00,73.2,64.4,29.68,North,0,0.0,0.0,74,0.00,CLR,,0.00,WeatherDisplay:10.37,2013-03-24 15:44:00,
2013-03-24 10:49:00,73.2,64.4,29.68,WSW,248,0.0,0.0,74,0.00,CLR,,0.00,WeatherDisplay:10.37,2013-03-24 15:49:00,
2013-03-24 10:54:00,73.6,64.8,29.68,NNW,338,8.1,14.9,74,0.00,CLR,,0.00,WeatherDisplay:10.37,2013-03-24 15:54:00,
2013-03-24 10:59:00,73.9,65.1,29.68,WNW,292,0.0,0.0,74,0.00,CLR,,0.00,WeatherDisplay:10.37,2013-03-24 15:59:00,
2013-03-24 11:04:00,73.9,64.7,29.68,NNW,338,0.0,0.0,73,0.00,CLR,,0.00,WeatherDisplay:10.37,2013-03-24 16:04:00,
2013-03-24 11:09:00,74.3,64.7,29.68,NW,315,0.0,0.0,72,0.00,CLR,,0.00,WeatherDisplay:10.37,2013-03-24 16:09:00,
2013-03-24 11:14:00,74.5,64.9,29.68,WNW,292,0.0,0.0,72,0.00,CLR,,0.00,WeatherDisplay:10.37,2013-03-24 16:14:00,
2013-03-24 11:19:00,74.8,64.8,29.67,NW,315,0.0,0.0,71,0.00,CLR,,0.00,WeatherDisplay:10.37,2013-03-24 16:19:00,
2013-03-24 11:24:00,74.8,64.4,29.67,West,270,0.0,0.0,70,0.00,CLR,,0.00,WeatherDisplay:10.37,2013-03-24 16:24:00,
2013-03-24 11:29:00,75.0,64.6,29.66,WNW,292,0.0,0.0,70,0.00,CLR,,0.00,WeatherDisplay:10.37,2013-03-24 16:29:00,
2013-03-24 11:34:00,75.4,64.9,29.65,WNW,292,0.0,0.0,70,0.00,CLR,,0.00,WeatherDisplay:10.37,2013-03-24 16:34:00,
2013-03-24 11:39:00,75.4,64.5,29.65,NW,315,0.0,0.0,69,0.00,CLR,,0.00,WeatherDisplay:10.37,2013-03-24 16:39:00,
2013-03-24 11:44:00,75.6,64.7,29.65,SE,135,0.0,0.0,69,0.00,CLR,,0.00,WeatherDisplay:10.37,2013-03-24 16:44:00,
2013-03-24 11:49:00,75.9,64.6,29.65,WSW,248,0.0,0.0,68,0.00,CLR,,0.00,WeatherDisplay:10.37,2013-03-24 16:49:00,
2013-03-24 11:54:00,75.9,64.6,29.65,WNW,292,0.0,0.0,68,0.00,CLR,,0.00,WeatherDisplay:10.37,2013-03-24 16:54:00,
2013-03-24 11:59:00,76.1,64.3,29.65,NNW,338,0.0,0.0,67,0.00,CLR,,0.00,WeatherDisplay:10.37,2013-03-24 16:59:00,
2013-03-24 12:04:00,76.3,64.5,29.65,WNW,292,0.0,0.0,67,0.00,CLR,,0.00,WeatherDisplay:10.37,2013-03-24 17:04:00,
2013-03-24 12:09:00,76.6,65.3,29.65,WSW,248,3.5,5.7,68,0.00,CLR,,0.00,WeatherDisplay:10.37,2013-03-24 17:09:00,
2013-03-24 12:14:00,76.8,66.3,29.65,SW,225,0.0,0.0,70,0.00,CLR,,0.00,WeatherDisplay:10.37,2013-03-24 17:14:00,
2013-03-24 12:19:00,76.8,66.3,29.65,WSW,248,0.0,0.0,70,0.00,CLR,,0.00,WeatherDisplay:10.37,2013-03-24 17:19:00,
2013-03-24 12:24:00,76.8,66.3,29.66,West,270,5.8,10.9,70,0.00,CLR,,0.00,WeatherDisplay:10.37,2013-03-24 17:24:00,
2013-03-24 12:30:00,76.8,65.9,29.65,West,270,3.5,7.0,69,0.00,CLR,,0.00,WeatherDisplay:10.37,2013-03-24 17:30:00,
2013-03-24 12:35:00,77.0,66.0,29.65,NW,315,9.3,16.9,69,0.00,CLR,,0.00,WeatherDisplay:10.37,2013-03-24 17:35:00,
2013-03-24 12:40:00,77.2,66.2,29.66,West,270,2.3,0.0,69,0.00,CLR,,0.00,WeatherDisplay:10.37,2013-03-24 17:40:00,
2013-03-24 12:45:00,77.4,65.5,29.65,WNW,292,1.2,2.6,67,0.00,CLR,,0.00,WeatherDisplay:10.37,2013-03-24 17:45:00,
2013-03-24 12:50:00,77.5,66.1,29.66,WSW,248,6.9,14.0,68,0.00,CLR,,0.00,WeatherDisplay:10.37,2013-03-24 17:50:00,
2013-03-24 12:55:00,77.7,66.3,29.66,West,270,0.0,0.0,68,0.00,CLR,,0.00,WeatherDisplay:10.37,2013-03-24 17:55:00,
2013-03-24 13:00:00,77.7,66.3,29.65,West,270,2.3,4.4,68,0.00,CLR,,0.00,WeatherDisplay:10.37,2013-03-24 18:00:00,
2013-03-24 13:05:00,77.9,66.9,29.65,SW,225,8.4,12.5,69,0.00,CLR,,0.00,WeatherDisplay:10.37,2013-03-24 18:05:00,
2013-03-24 13:10:00,78.1,66.7,29.65,NW,315,1.2,2.6,68,0.00,CLR,,0.00,WeatherDisplay:10.37,2013-03-24 18:10:00,
2013-03-24 13:15:00,78.1,66.7,29.65,WSW,248,6.9,11.8,68,0.00,CLR,,0.00,WeatherDisplay:10.37,2013-03-24 18:15:00,
2013-03-24 13:20:00,78.1,67.1,29.65,NW,315,1.2,0.0,69,0.00,CLR,,0.00,WeatherDisplay:10.37,2013-03-24 18:20:00,
2013-03-24 13:25:00,78.4,67.4,29.64,West,270,0.0,0.0,69,0.00,CLR,,0.00,WeatherDisplay:10.37,2013-03-24 18:25:00,
2013-03-24 13:30:00,78.6,67.6,29.64,WSW,248,9.2,10.9,69,0.00,CLR,,0.00,WeatherDisplay:10.37,2013-03-24 18:30:00,
2013-03-24 13:35:00,78.6,67.2,29.64,SW,225,9.2,11.9,68,0.00,CLR,,0.00,WeatherDisplay:10.37,2013-03-24 18:35:00,
2013-03-24 13:40:00,78.6,67.2,29.64,West,270,13.8,26.3,68,0.00,CLR,,0.00,WeatherDisplay:10.37,2013-03-24 18:40:00,
2013-03-24 13:45:00,79.0,67.5,29.64,WSW,248,3.5,7.9,68,0.00,CLR,,0.00,WeatherDisplay:10.37,2013-03-24 18:45:00,
2013-03-24 13:50:00,79.0,67.5,29.64,WSW,248,9.2,16.9,68,0.00,CLR,,0.00,WeatherDisplay:10.37,2013-03-24 18:50:00,
2013-03-24 13:55:00,79.2,67.7,29.63,WSW,248,5.3,0.0,68,0.00,CLR,,0.00,WeatherDisplay:10.37,2013-03-24 18:55:00,
2013-03-24 14:00:00,79.3,67.9,29.63,WSW,248,3.5,5.7,68,0.00,CLR,,0.00,WeatherDisplay:10.37,2013-03-24 19:00:00,
2013-03-24 14:05:00,79.5,68.0,29.63,NW,315,0.0,0.0,68,0.00,CLR,,0.00,WeatherDisplay:10.37,2013-03-24 19:05:00,
2013-03-24 14:10:00,79.5,67.6,29.63,NNW,338,0.0,0.0,67,0.00,CLR,,0.00,WeatherDisplay:10.37,2013-03-24 19:10:00,
2013-03-24 14:15:00,79.5,67.6,29.63,NW,315,12.7,20.8,67,0.00,CLR,,0.00,WeatherDisplay:10.37,2013-03-24 19:15:00,
2013-03-24 14:20:00,79.7,68.2,29.63,WSW,248,7.1,13.5,68,0.00,CLR,,0.00,WeatherDisplay:10.37,2013-03-24 19:20:00,
2013-03-24 14:25:00,79.9,67.9,29.63,West,270,0.0,0.0,67,0.00,CLR,,0.00,WeatherDisplay:10.37,2013-03-24 19:25:00,
2013-03-24 14:30:00,79.9,67.5,29.63,West,270,4.6,8.2,66,0.00,CLR,,0.00,WeatherDisplay:10.37,2013-03-24 19:30:00,
2013-03-24 14:35:00,79.9,67.5,29.63,NW,315,10.4,10.4,66,0.00,CLR,,0.00,WeatherDisplay:10.37,2013-03-24 19:35:00,
2013-03-24 14:40:00,79.7,67.3,29.63,SW,225,5.8,10.5,66,0.00,CLR,,0.00,WeatherDisplay:10.37,2013-03-24 19:40:00,
2013-03-24 14:45:00,79.7,67.3,29.63,West,270,5.8,9.9,66,0.00,CLR,,0.00,WeatherDisplay:10.37,2013-03-24 19:45:00,
2013-03-24 14:51:00,79.5,67.2,29.62,WSW,248,4.0,7.9,66,0.00,CLR,,0.00,WeatherDisplay:10.37,2013-03-24 19:51:00,
2013-03-24 14:56:00,79.5,67.2,29.62,West,270,3.5,7.5,66,0.00,CLR,,0.00,WeatherDisplay:10.37,2013-03-24 19:56:00,
2013-03-24 15:01:00,79.7,66.9,29.62,NW,315,2.3,3.4,65,0.00,CLR,,0.00,WeatherDisplay:10.37,2013-03-24 20:01:00,
2013-03-24 15:06:00,79.7,66.9,29.62,WNW,292,8.1,10.5,65,0.00,CLR,,0.00,WeatherDisplay:10.37,2013-03-24 20:06:00,
2013-03-24 15:11:00,80.2,66.0,29.62,West,270,10.4,19.6,62,0.00,CLR,,0.00,WeatherDisplay:10.37,2013-03-24 20:11:00,
2013-03-24 15:16:00,80.4,64.8,29.62,North,0,9.2,17.5,59,0.00,CLR,,0.00,WeatherDisplay:10.37,2013-03-24 20:16:00,
2013-03-24 15:21:00,80.4,64.3,29.62,NW,315,14.2,14.2,58,0.00,CLR,,0.00,WeatherDisplay:10.37,2013-03-24 20:21:00,
2013-03-24 15:26:00,80.4,62.2,29.62,West,270,16.1,30.4,54,0.00,CLR,,0.00,WeatherDisplay:10.37,2013-03-24 20:26:00,
2013-03-24 15:31:00,80.4,61.7,29.62,WNW,292,10.4,21.0,53,0.00,CLR,,0.00,WeatherDisplay:10.37,2013-03-24 20:31:00,
2013-03-24 15:36:00,80.4,61.2,29.62,West,270,12.7,24.1,52,0.00,CLR,,0.00,WeatherDisplay:10.37,2013-03-24 20:36:00,
2013-03-24 15:42:00,80.4,61.2,29.62,NW,315,3.5,7.0,52,0.00,CLR,,0.00,WeatherDisplay:10.37,2013-03-24 20:42:00,
2013-03-24 15:47:00,80.2,61.0,29.62,WSW,248,13.8,13.8,52,0.00,CLR,,0.00,WeatherDisplay:10.37,2013-03-24 20:47:00,
2013-03-24 15:52:00,80.2,61.0,29.62,NNW,338,12.7,24.5,52,0.00,CLR,,0.00,WeatherDisplay:10.37,2013-03-24 20:52:00,
2013-03-24 15:57:00,80.1,60.3,29.63,NNW,338,12.8,16.6,51,0.00,CLR,,0.00,WeatherDisplay:10.37,2013-03-24 20:57:00,
2013-03-24 16:02:00,79.9,60.7,29.63,West,270,13.8,21.6,52,0.00,CLR,,0.00,WeatherDisplay:10.37,2013-03-24 21:02:00,
2013-03-24 16:07:00,79.5,60.4,29.63,SW,225,13.8,26.3,52,0.00,CLR,,0.00,WeatherDisplay:10.37,2013-03-24 21:07:00,
2013-03-24 16:12:00,79.3,60.2,29.63,NW,315,8.1,15.8,52,0.00,CLR,,0.00,WeatherDisplay:10.37,2013-03-24 21:12:00,
2013-03-24 16:17:00,78.6,60.6,29.63,NNE,22,13.8,26.4,54,0.00,CLR,,0.00,WeatherDisplay:10.37,2013-03-24 21:17:00,
2013-03-24 16:22:00,78.4,60.4,29.63,NNE,22,11.5,21.0,54,0.00,CLR,,0.00,WeatherDisplay:10.37,2013-03-24 21:22:00,
2013-03-24 16:27:00,77.7,60.3,29.63,NNW,338,12.8,12.8,55,0.00,CLR,,0.00,WeatherDisplay:10.37,2013-03-24 21:27:00,
2013-03-24 16:32:00,77.7,60.3,29.63,WSW,248,15.0,29.5,55,0.00,,,0.00,WeatherDisplay:10.37,2013-03-24 21:32:00,
2013-03-24 16:38:00,77.2,60.3,29.63,NNW,338,6.9,13.1,56,0.00,CLR,,0.00,WeatherDisplay:10.37,2013-03-24 21:38:00,
2013-03-24 16:43:00,76.8,59.9,29.63,WSW,248,4.6,0.0,56,0.00,CLR,,0.00,WeatherDisplay:10.37,2013-03-24 21:43:00,
2013-03-24 16:48:00,76.6,59.8,29.63,NNW,338,8.1,15.8,56,0.00,CLR,,0.00,WeatherDisplay:10.37,2013-03-24 21:48:00,
2013-03-24 16:53:00,76.3,59.4,29.64,West,270,13.8,26.0,56,0.00,CLR,,0.00,WeatherDisplay:10.37,2013-03-24 21:53:00,
2013-03-24 16:58:00,75.9,58.6,29.64,SSW,202,8.1,8.1,55,0.00,CLR,,0.00,WeatherDisplay:10.37,2013-03-24 21:58:00,
2013-03-24 17:03:00,75.4,58.1,29.64,NW,315,1.2,1.8,55,0.02,RA,,0.02,WeatherDisplay:10.37,2013-03-24 22:03:00,
2013-03-24 17:08:00,74.8,58.1,29.65,NE,45,8.1,12.3,56,0.02,RA,,0.02,WeatherDisplay:10.37,2013-03-24 22:08:00,
2013-03-24 17:13:00,74.3,57.6,29.65,WSW,248,8.1,12.7,56,0.02,,,0.02,WeatherDisplay:10.37,2013-03-24 22:13:00,
2013-03-24 17:18:00,73.9,56.8,29.65,WSW,248,4.6,8.8,55,0.02,CLR,,0.02,WeatherDisplay:10.37,2013-03-24 22:18:00,
2013-03-24 17:23:00,73.2,56.1,29.65,NNW,338,5.8,15.2,55,0.02,CLR,,0.02,WeatherDisplay:10.37,2013-03-24 22:23:00,
2013-03-24 17:28:00,72.7,55.6,29.66,NNW,338,13.8,25.8,55,0.02,CLR,,0.02,WeatherDisplay:10.37,2013-03-24 22:28:00,
2013-03-24 17:33:00,72.3,55.7,29.66,West,270,11.5,22.8,56,0.02,,,0.02,WeatherDisplay:10.37,2013-03-24 22:33:00,
2013-03-24 17:38:00,72.0,55.9,29.67,NNW,338,18.1,23.7,57,0.02,CLR,,0.02,WeatherDisplay:10.37,2013-03-24 22:38:00,
2013-03-24 17:43:00,71.4,55.9,29.67,West,270,11.5,20.1,58,0.02,CLR,,0.02,WeatherDisplay:10.37,2013-03-24 22:43:00,
2013-03-24 17:48:00,71.2,55.7,29.67,NNW,338,8.4,16.6,58,0.02,CLR,,0.02,WeatherDisplay:10.37,2013-03-24 22:48:00,
2013-03-24 17:53:00,70.7,55.7,29.67,North,0,5.8,5.8,59,0.02,,,0.02,WeatherDisplay:10.37,2013-03-24 22:53:00,
2013-03-24 17:58:00,70.3,55.3,29.68,NW,315,5.8,0.0,59,0.02,CLR,,0.02,WeatherDisplay:10.37,2013-03-24 22:58:00,
2013-03-24 18:03:00,70.2,55.6,29.68,West,270,0.0,0.0,60,0.00,CLR,,0.02,WeatherDisplay:10.37,2013-03-24 23:03:00,
2013-03-24 18:08:00,69.6,55.6,29.69,WSW,248,11.9,23.7,61,0.00,CLR,,0.02,WeatherDisplay:10.37,2013-03-24 23:08:00,
2013-03-24 18:13:00,68.9,54.9,29.69,West,270,19.6,33.0,61,0.00,CLR,,0.02,WeatherDisplay:10.37,2013-03-24 23:13:00,
2013-03-24 18:18:00,68.5,54.6,29.70,NNW,338,12.8,25.4,61,0.00,CLR,,0.02,WeatherDisplay:10.37,2013-03-24 23:18:00,
2013-03-24 18:23:00,67.8,53.4,29.70,North,0,17.3,32.4,60,0.00,,,0.02,WeatherDisplay:10.37,2013-03-24 23:23:00,
2013-03-24 18:28:00,67.3,52.9,29.70,North,0,11.5,16.9,60,0.00,CLR,,0.02,WeatherDisplay:10.37,2013-03-24 23:28:00,
2013-03-24 18:33:00,66.9,52.1,29.71,NE,45,4.6,9.6,59,0.00,CLR,,0.02,WeatherDisplay:10.37,2013-03-24 23:33:00,
2013-03-24 18:38:00,66.4,51.6,29.71,NNW,338,10.4,18.2,59,0.00,CLR,,0.02,WeatherDisplay:10.37,2013-03-24 23:38:00,
2013-03-24 18:43:00,66.0,50.3,29.71,WNW,292,12.7,23.1,57,0.00,CLR,,0.02,WeatherDisplay:10.37,2013-03-24 23:43:00,
2013-03-24 18:48:00,65.8,50.2,29.72,NNW,338,5.8,12.3,57,0.00,CLR,,0.02,WeatherDisplay:10.37,2013-03-24 23:48:00,
2013-03-24 18:53:00,65.5,50.3,29.72,NW,315,11.9,11.9,58,0.00,CLR,,0.02,WeatherDisplay:10.37,2013-03-24 23:53:00,
2013-03-24 18:58:00,65.1,50.0,29.73,NNW,338,10.4,20.1,58,0.00,CLR,,0.02,WeatherDisplay:10.37,2013-03-24 23:58:00,
2013-03-24 19:03:00,64.8,49.6,29.73,NNW,338,9.3,18.4,58,0.00,CLR,,0.02,WeatherDisplay:10.37,2013-03-25 00:03:00,
2013-03-24 19:08:00,64.6,49.5,29.73,North,0,6.2,10.5,58,0.00,CLR,,0.02,WeatherDisplay:10.37,2013-03-25 00:08:00,
2013-03-24 19:13:00,64.4,49.3,29.73,NNW,338,6.9,13.3,58,0.00,CLR,,0.02,WeatherDisplay:10.37,2013-03-25 00:13:00,
2013-03-24 19:18:00,64.2,49.1,29.73,NNW,338,5.8,10.5,58,0.00,CLR,,0.02,WeatherDisplay:10.37,2013-03-25 00:18:00,
2013-03-24 19:23:00,63.9,48.8,29.74,NNW,338,11.5,21.4,58,0.00,CLR,,0.02,WeatherDisplay:10.37,2013-03-25 00:23:00,
2013-03-24 19:28:00,63.7,48.6,29.74,North,0,3.5,6.3,58,0.00,CLR,,0.02,WeatherDisplay:10.37,2013-03-25 00:28:00,
2013-03-24 19:33:00,63.3,47.8,29.74,WSW,248,31.4,62.2,57,0.00,,,0.02,WeatherDisplay:10.37,2013-03-25 00:33:00,
2013-03-24 19:38:00,63.1,46.2,29.75,NW,315,11.5,17.5,54,0.00,CLR,,0.02,WeatherDisplay:10.37,2013-03-25 00:38:00,
2013-03-24 19:44:00,63.0,46.0,29.75,SSE,158,6.9,13.1,54,0.00,CLR,,0.02,WeatherDisplay:10.37,2013-03-25 00:44:00,
2013-03-24 19:49:00,62.4,44.6,29.76,NW,315,6.9,13.8,52,0.00,CLR,,0.02,WeatherDisplay:10.37,2013-03-25 00:49:00,
2013-03-24 19:54:00,62.4,43.5,29.77,WSW,248,8.1,15.8,50,0.00,CLR,,0.02,WeatherDisplay:10.37,2013-03-25 00:54:00,
2013-03-24 19:59:00,62.2,43.4,29.77,NNW,338,12.7,24.5,50,0.00,CLR,,0.02,WeatherDisplay:10.37,2013-03-25 00:59:00,
2013-03-24 20:04:00,61.7,42.9,29.77,NW,315,13.8,21.9,50,0.00,CLR,,0.02,WeatherDisplay:10.37,2013-03-25 01:04:00,
2013-03-24 20:09:00,61.5,42.7,29.78,WNW,292,0.0,10.9,50,0.00,CLR,,0.02,WeatherDisplay:10.37,2013-03-25 01:09:00,
2013-03-24 20:14:00,61.3,43.0,29.78,North,0,0.0,0.0,51,0.00,CLR,,0.02,WeatherDisplay:10.37,2013-03-25 01:14:00,
2013-03-24 20:19:00,61.2,43.4,29.78,NW,315,1.3,1.4,52,0.00,CLR,,0.02,WeatherDisplay:10.37,2013-03-25 01:19:00,
2013-03-24 20:24:00,61.0,43.2,29.79,NNW,338,6.9,11.6,52,0.00,CLR,,0.02,WeatherDisplay:10.37,2013-03-25 01:24:00,
2013-03-24 20:29:00,60.6,42.4,29.79,North,0,3.5,6.5,51,0.00,CLR,,0.02,WeatherDisplay:10.37,2013-03-25 01:29:00,
2013-03-24 20:34:00,60.4,41.2,29.79,NW,315,12.7,20.0,49,0.00,CLR,,0.02,WeatherDisplay:10.37,2013-03-25 01:34:00,
2013-03-24 20:39:00,59.9,39.6,29.80,West,270,4.6,8.8,47,0.00,CLR,,0.02,WeatherDisplay:10.37,2013-03-25 01:39:00,
2013-03-24 20:44:00,59.7,40.0,29.81,North,0,12.7,24.5,48,0.00,CLR,,0.02,WeatherDisplay:10.37,2013-03-25 01:44:00,
2013-03-24 20:49:00,59.4,39.7,29.81,NW,315,15.0,15.0,48,0.00,,,0.02,WeatherDisplay:10.37,2013-03-25 01:49:00,
2013-03-24 20:54:00,59.2,39.5,29.81,NNW,338,11.5,23.7,48,0.00,CLR,,0.02,WeatherDisplay:10.37,2013-03-25 01:54:00,
2013-03-24 20:59:00,58.8,39.7,29.81,North,0,6.9,13.1,49,0.00,CLR,,0.02,WeatherDisplay:10.37,2013-03-25 01:59:00,
2013-03-24 21:04:00,58.8,40.2,29.82,NNW,338,11.5,11.5,50,0.00,CLR,,0.02,WeatherDisplay:10.37,2013-03-25 02:04:00,
2013-03-24 21:09:00,58.6,40.0,29.82,North,0,9.2,18.4,50,0.00,CLR,,0.02,WeatherDisplay:10.37,2013-03-25 02:09:00,
2013-03-24 21:14:00,58.6,40.0,29.82,NNW,338,8.1,15.8,50,0.00,CLR,,0.02,WeatherDisplay:10.37,2013-03-25 02:14:00,
2013-03-24 21:19:00,58.1,39.5,29.83,North,0,4.6,8.8,50,0.00,CLR,,0.02,WeatherDisplay:10.37,2013-03-25 02:19:00,
2013-03-24 21:24:00,57.9,39.9,29.83,NNW,338,9.2,9.2,51,0.00,CLR,,0.02,WeatherDisplay:10.37,2013-03-25 02:24:00,
2013-03-24 21:29:00,57.7,39.7,29.83,NW,315,11.5,22.8,51,0.00,CLR,,0.02,WeatherDisplay:10.37,2013-03-25 02:29:00,
2013-03-24 21:34:00,57.7,40.2,29.83,WNW,292,11.5,22.8,52,0.00,CLR,,0.02,WeatherDisplay:10.37,2013-03-25 02:34:00,
2013-03-24 21:39:00,57.4,39.9,29.84,NNW,338,5.8,10.5,52,0.00,CLR,,0.02,WeatherDisplay:10.37,2013-03-25 02:39:00,
2013-03-24 21:44:00,57.2,40.2,29.84,NNW,338,13.8,26.3,53,0.00,CLR,,0.02,WeatherDisplay:10.37,2013-03-25 02:44:00,
2013-03-24 21:49:00,57.0,40.0,29.84,WSW,248,5.8,9.4,53,0.00,CLR,,0.02,WeatherDisplay:10.37,2013-03-25 02:49:00,
2013-03-24 21:54:00,56.8,39.9,29.85,North,0,10.4,10.7,53,0.00,CLR,,0.02,WeatherDisplay:10.37,2013-03-25 02:54:00,
2013-03-24 21:59:00,56.5,39.5,29.86,NW,315,3.5,12.8,53,0.00,CLR,,0.02,WeatherDisplay:10.37,2013-03-25 02:59:00,
2013-03-24 22:04:00,55.9,39.5,29.86,WSW,248,4.9,4.9,54,0.00,CLR,,0.02,WeatherDisplay:10.37,2013-03-25 03:04:00,
2013-03-24 22:09:00,55.8,39.4,29.86,NW,315,5.8,5.8,54,0.00,CLR,,0.02,WeatherDisplay:10.37,2013-03-25 03:09:00,
2013-03-24 22:14:00,55.4,39.0,29.86,North,0,11.5,22.8,54,0.00,CLR,,0.02,WeatherDisplay:10.37,2013-03-25 03:14:00,
2013-03-24 22:19:00,55.0,38.7,29.87,NNE,22,8.1,8.1,54,0.00,CLR,,0.02,WeatherDisplay:10.37,2013-03-25 03:19:00,
2013-03-24 22:24:00,54.7,38.4,29.87,NNW,338,12.7,24.5,54,0.00,CLR,,0.02,WeatherDisplay:10.37,2013-03-25 03:24:00,
2013-03-24 22:29:00,54.3,38.0,29.88,WSW,248,0.4,0.9,54,0.00,CLR,,0.02,WeatherDisplay:10.37,2013-03-25 03:29:00,
2013-03-24 22:34:00,54.0,38.1,29.88,North,0,8.1,13.1,55,0.00,CLR,,0.02,WeatherDisplay:10.37,2013-03-25 03:34:00,
2013-03-24 22:39:00,53.8,38.0,29.88,North,0,0.0,0.0,55,0.00,CLR,,0.02,WeatherDisplay:10.37,2013-03-25 03:39:00,
2013-03-24 22:44:00,53.4,37.6,29.88,NNW,338,6.9,14.0,55,0.00,CLR,,0.02,WeatherDisplay:10.37,2013-03-25 03:44:00,
2013-03-24 22:49:00,53.4,38.1,29.89,West,270,3.5,3.5,56,0.00,CLR,,0.02,WeatherDisplay:10.37,2013-03-25 03:49:00,
2013-03-24 22:54:00,53.2,37.9,29.89,WSW,248,3.5,6.1,56,0.00,CLR,,0.02,WeatherDisplay:10.37,2013-03-25 03:54:00,
2013-03-24 22:59:00,52.9,37.6,29.89,NNW,338,6.9,14.0,56,0.00,CLR,,0.02,WeatherDisplay:10.37,2013-03-25 03:59:00,
2013-03-24 23:00:00,52.9,38.1,29.89,North,0,8.1,15.3,57,0.00,CLR,,0.02,WeatherDisplay:10.37,2013-03-25 04:00:00,
2013-03-24 23:03:00,52.7,37.4,29.89,NNE,22,15.0,28.9,56,0.00,,,0.02,WeatherDisplay:10.37,2013-03-25 04:03:00,
2013-03-24 23:08:00,52.3,37.5,29.89,North,0,0.0,0.0,57,0.00,CLR,,0.02,WeatherDisplay:10.37,2013-03-25 04:08:00,
2013-03-24 23:12:00,52.3,37.5,29.90,WNW,292,4.6,9.6,57,0.00,CLR,,0.02,WeatherDisplay:10.37,2013-03-25 04:12:00,
2013-03-24 23:17:00,52.3,37.5,29.90,North,0,5.8,11.4,57,0.00,CLR,,0.02,WeatherDisplay:10.37,2013-03-25 04:17:00,
2013-03-24 23:22:00,52.0,37.7,29.90,SW,225,3.5,3.5,58,0.00,CLR,,0.02,WeatherDisplay:10.37,2013-03-25 04:22:00,
2013-03-24 23:27:00,51.6,37.3,29.91,NNE,22,0.0,0.0,58,0.00,CLR,,0.02,WeatherDisplay:10.37,2013-03-25 04:27:00,
2013-03-24 23:32:00,51.4,37.6,29.91,ENE,68,0.0,0.0,59,0.00,CLR,,0.02,WeatherDisplay:10.37,2013-03-25 04:32:00,
2013-03-24 23:37:00,51.3,37.4,29.91,NNE,22,15.0,29.8,59,0.00,,,0.02,WeatherDisplay:10.37,2013-03-25 04:37:00,
2013-03-24 23:42:00,50.9,37.5,29.91,NW,315,10.4,13.8,60,0.00,CLR,,0.02,WeatherDisplay:10.37,2013-03-25 04:42:00,
2013-03-24 23:47:00,50.7,37.3,29.91,North,0,5.8,8.8,60,0.00,CLR,,0.02,WeatherDisplay:10.37,2013-03-25 04:47:00,
2013-03-24 23:52:00,50.7,37.3,29.91,WNW,292,0.0,0.0,60,0.00,CLR,,0.02,WeatherDisplay:10.37,2013-03-25 04:52:00,
2013-03-24 23:58:00,50.4,37.0,29.91,ENE,68,7.1,14.0,60,0.00,CLR,,0.02,WeatherDisplay:10.37,2013-03-25 04:58:00,